sensor_id;sensor_type;location;lat;lon;timestamp;pressure;altitude;pressure_sealevel;temperature;humidity
56630;BME280;42502;40.732;-74.254;2023-06-22T00:01:23;101401.44;;;27.62;35.97
56630;BME280;42502;40.732;-74.254;2023-06-22T00:03:24;101401.44;;;27.62;35.98
56630;BME280;42502;40.732;-74.254;2023-06-22T00:05:26;101391.28;;;27.61;35.75
56630;BME280;42502;40.732;-74.254;2023-06-22T00:07:26;101389.25;;;27.61;35.62
56630;BME280;42502;40.732;-74.254;2023-06-22T00:09:27;101382.78;;;27.61;35.67
56630;BME280;42502;40.732;-74.254;2023-06-22T00:11:28;101381.97;;;27.60;36.05
56630;BME280;42502;40.732;-74.254;2023-06-22T00:13:29;101386.00;;;27.59;36.13
56630;BME280;42502;40.732;-74.254;2023-06-22T00:15:32;101356.72;;;27.52;35.65
56630;BME280;42502;40.732;-74.254;2023-06-22T00:17:33;101366.91;;;27.56;36.11
56630;BME280;42502;40.732;-74.254;2023-06-22T00:19:34;101351.28;;;27.39;35.46
56630;BME280;42502;40.732;-74.254;2023-06-22T00:21:38;101370.13;;;27.55;35.77
56630;BME280;42502;40.732;-74.254;2023-06-22T00:23:39;101371.00;;;27.59;35.82
56630;BME280;42502;40.732;-74.254;2023-06-22T00:25:40;101369.34;;;27.58;35.99
56630;BME280;42502;40.732;-74.254;2023-06-22T00:27:41;101360.84;;;27.58;36.15
56630;BME280;42502;40.732;-74.254;2023-06-22T00:29:41;101362.03;;;27.57;36.14
56630;BME280;42502;40.732;-74.254;2023-06-22T00:31:42;101348.25;;;27.55;35.97
56630;BME280;42502;40.732;-74.254;2023-06-22T00:33:43;101353.53;;;27.57;36.10
56630;BME280;42502;40.732;-74.254;2023-06-22T00:35:47;101345.41;;;27.55;36.16
56630;BME280;42502;40.732;-74.254;2023-06-22T00:37:48;101346.19;;;27.56;36.02
56630;BME280;42502;40.732;-74.254;2023-06-22T00:39:58;101338.44;;;27.49;35.88
56630;BME280;42502;40.732;-74.254;2023-06-22T00:41:59;101346.16;;;27.52;36.17
56630;BME280;42502;40.732;-74.254;2023-06-22T00:44:00;101351.03;;;27.52;36.10
56630;BME280;42502;40.732;-74.254;2023-06-22T00:46:01;101352.66;;;27.53;36.12
56630;BME280;42502;40.732;-74.254;2023-06-22T00:48:02;101356.34;;;27.53;36.13
56630;BME280;42502;40.732;-74.254;2023-06-22T00:50:06;101350.19;;;27.51;35.76
56630;BME280;42502;40.732;-74.254;2023-06-22T00:52:13;101352.66;;;27.53;36.23
56630;BME280;42502;40.732;-74.254;2023-06-22T00:54:14;101354.69;;;27.52;35.77
56630;BME280;42502;40.732;-74.254;2023-06-22T00:56:15;101352.63;;;27.49;36.10
56630;BME280;42502;40.732;-74.254;2023-06-22T00:58:20;101349.75;;;27.45;35.95
56630;BME280;42502;40.732;-74.254;2023-06-22T01:00:25;101363.59;;;27.51;35.80
56630;BME280;42502;40.732;-74.254;2023-06-22T01:02:29;101348.91;;;27.45;35.90
56630;BME280;42502;40.732;-74.254;2023-06-22T01:04:38;101348.19;;;27.52;36.13
56630;BME280;42502;40.732;-74.254;2023-06-22T01:06:47;101349.78;;;27.49;35.87
56630;BME280;42502;40.732;-74.254;2023-06-22T01:09:15;101360.75;;;27.51;36.04
56630;BME280;42502;40.732;-74.254;2023-06-22T01:11:26;101355.88;;;27.51;36.03
56630;BME280;42502;40.732;-74.254;2023-06-22T01:13:40;101361.94;;;27.50;35.85
56630;BME280;42502;40.732;-74.254;2023-06-22T01:16:03;101357.03;;;27.46;36.00
56630;BME280;42502;40.732;-74.254;2023-06-22T01:18:07;101363.16;;;27.48;36.07
56630;BME280;42502;40.732;-74.254;2023-06-22T01:20:09;101357.50;;;27.48;36.21
56630;BME280;42502;40.732;-74.254;2023-06-22T01:22:16;101357.81;;;27.43;35.99
56630;BME280;42502;40.732;-74.254;2023-06-22T01:24:46;101364.31;;;27.44;36.12
56630;BME280;42502;40.732;-74.254;2023-06-22T01:29:04;101368.78;;;27.45;36.01
56630;BME280;42502;40.732;-74.254;2023-06-22T01:31:09;101368.78;;;27.45;35.94
56630;BME280;42502;40.732;-74.254;2023-06-22T01:33:13;101368.34;;;27.43;36.19
56630;BME280;42502;40.732;-74.254;2023-06-22T01:35:15;101370.81;;;27.44;36.23
56630;BME280;42502;40.732;-74.254;2023-06-22T01:37:16;101374.84;;;27.43;36.35
56630;BME280;42502;40.732;-74.254;2023-06-22T01:39:18;101374.84;;;27.43;35.88
56630;BME280;42502;40.732;-74.254;2023-06-22T01:41:25;101371.94;;;27.36;35.96
56630;BME280;42502;40.732;-74.254;2023-06-22T01:43:27;101374.81;;;27.40;36.02
56630;BME280;42502;40.732;-74.254;2023-06-22T01:45:28;101372.38;;;27.42;36.03
56630;BME280;42502;40.732;-74.254;2023-06-22T01:47:29;101376.06;;;27.42;36.34
56630;BME280;42502;40.732;-74.254;2023-06-22T01:49:30;101367.88;;;27.37;36.63
56630;BME280;42502;40.732;-74.254;2023-06-22T01:51:34;101376.44;;;27.41;36.05
56630;BME280;42502;40.732;-74.254;2023-06-22T01:53:35;101369.13;;;27.40;36.52
56630;BME280;42502;40.732;-74.254;2023-06-22T01:55:35;101375.19;;;27.38;36.22
56630;BME280;42502;40.732;-74.254;2023-06-22T01:57:37;101370.72;;;27.37;36.35
56630;BME280;42502;40.732;-74.254;2023-06-22T02:02:08;101372.72;;;27.37;36.26
56630;BME280;42502;40.732;-74.254;2023-06-22T02:04:33;101375.97;;;27.35;36.50
56630;BME280;42502;40.732;-74.254;2023-06-22T02:06:37;101377.59;;;27.36;36.20
56630;BME280;42502;40.732;-74.254;2023-06-22T02:08:55;101371.06;;;27.32;36.20
56630;BME280;42502;40.732;-74.254;2023-06-22T02:10:57;101375.56;;;27.37;36.37
56630;BME280;42502;40.732;-74.254;2023-06-22T02:13:01;101379.59;;;27.36;36.13
56630;BME280;42502;40.732;-74.254;2023-06-22T02:15:03;101384.47;;;27.35;36.31
56630;BME280;42502;40.732;-74.254;2023-06-22T02:17:04;101384.03;;;27.33;35.73
56630;BME280;42502;40.732;-74.254;2023-06-22T02:19:08;101367.69;;;27.26;35.80
56630;BME280;42502;40.732;-74.254;2023-06-22T02:21:08;101378.38;;;27.33;36.18
56630;BME280;42502;40.732;-74.254;2023-06-22T02:23:09;101372.19;;;27.27;36.10
56630;BME280;42502;40.732;-74.254;2023-06-22T02:25:13;101379.91;;;27.30;36.09
56630;BME280;42502;40.732;-74.254;2023-06-22T02:27:20;101384.78;;;27.30;36.35
56630;BME280;42502;40.732;-74.254;2023-06-22T02:29:21;101385.59;;;27.30;36.07
56630;BME280;42502;40.732;-74.254;2023-06-22T02:31:31;101386.41;;;27.31;36.02
56630;BME280;42502;40.732;-74.254;2023-06-22T02:33:32;101383.94;;;27.29;36.10
56630;BME280;42502;40.732;-74.254;2023-06-22T02:35:32;101377.47;;;27.29;36.01
56630;BME280;42502;40.732;-74.254;2023-06-22T02:37:41;101376.97;;;27.23;36.09
56630;BME280;42502;40.732;-74.254;2023-06-22T02:39:42;101384.34;;;27.28;35.92
56630;BME280;42502;40.732;-74.254;2023-06-22T02:41:45;101388.38;;;27.27;35.93
56630;BME280;42502;40.732;-74.254;2023-06-22T02:43:46;101392.03;;;27.27;35.84
56630;BME280;42502;40.732;-74.254;2023-06-22T02:45:50;101391.59;;;27.25;35.92
56630;BME280;42502;40.732;-74.254;2023-06-22T02:47:51;101394.81;;;27.24;35.55
56630;BME280;42502;40.732;-74.254;2023-06-22T02:49:52;101391.97;;;27.24;35.86
56630;BME280;42502;40.732;-74.254;2023-06-22T02:51:57;101387.91;;;27.21;35.69
56630;BME280;42502;40.732;-74.254;2023-06-22T02:53:58;101385.44;;;27.20;35.44
56630;BME280;42502;40.732;-74.254;2023-06-22T02:56:02;101389.50;;;27.22;35.97
56630;BME280;42502;40.732;-74.254;2023-06-22T02:58:06;101388.72;;;27.22;35.69
56630;BME280;42502;40.732;-74.254;2023-06-22T03:00:07;101396.41;;;27.21;35.71
56630;BME280;42502;40.732;-74.254;2023-06-22T03:02:17;101393.56;;;27.21;35.57
56630;BME280;42502;40.732;-74.254;2023-06-22T03:04:22;101402.47;;;27.20;35.33
56630;BME280;42502;40.732;-74.254;2023-06-22T03:06:22;101391.88;;;27.17;35.58
56630;BME280;42502;40.732;-74.254;2023-06-22T03:08:24;101392.28;;;27.15;35.38
56630;BME280;42502;40.732;-74.254;2023-06-22T03:10:24;101397.94;;;27.15;35.29
56630;BME280;42502;40.732;-74.254;2023-06-22T03:12:25;101396.34;;;27.18;35.38
56630;BME280;42502;40.732;-74.254;2023-06-22T03:14:26;101395.91;;;27.16;35.47
56630;BME280;42502;40.732;-74.254;2023-06-22T03:16:27;101388.59;;;27.15;35.56
56630;BME280;42502;40.732;-74.254;2023-06-22T03:18:28;101390.25;;;27.16;35.13
56630;BME280;42502;40.732;-74.254;2023-06-22T03:20:29;101390.63;;;27.14;35.47
56630;BME280;42502;40.732;-74.254;2023-06-22T03:22:33;101378.84;;;27.12;35.50
56630;BME280;42502;40.732;-74.254;2023-06-22T03:24:34;101374.00;;;27.12;35.55
56630;BME280;42502;40.732;-74.254;2023-06-22T03:26:37;101391.00;;;27.12;35.13
56630;BME280;42502;40.732;-74.254;2023-06-22T03:28:38;101382.88;;;27.11;35.37
56630;BME280;42502;40.732;-74.254;2023-06-22T03:30:41;101387.75;;;27.10;35.14
56630;BME280;42502;40.732;-74.254;2023-06-22T03:32:42;101380.44;;;27.09;35.12
56630;BME280;42502;40.732;-74.254;2023-06-22T03:34:43;101374.75;;;27.09;35.39
56630;BME280;42502;40.732;-74.254;2023-06-22T03:36:47;101375.94;;;27.08;35.09
56630;BME280;42502;40.732;-74.254;2023-06-22T03:38:49;101384.47;;;27.08;35.09
56630;BME280;42502;40.732;-74.254;2023-06-22T03:40:50;101383.22;;;27.06;35.31
56630;BME280;42502;40.732;-74.254;2023-06-22T03:42:54;101382.84;;;27.07;35.31
56630;BME280;42502;40.732;-74.254;2023-06-22T03:44:54;101380.00;;;27.07;35.02
56630;BME280;42502;40.732;-74.254;2023-06-22T03:46:55;101379.16;;;27.07;35.22
56630;BME280;42502;40.732;-74.254;2023-06-22T03:48:56;101382.38;;;27.05;35.25
56630;BME280;42502;40.732;-74.254;2023-06-22T03:50:59;101374.28;;;27.04;34.99
56630;BME280;42502;40.732;-74.254;2023-06-22T03:53:03;101371.44;;;27.04;35.26
56630;BME280;42502;40.732;-74.254;2023-06-22T03:55:05;101371.81;;;27.02;35.14
56630;BME280;42502;40.732;-74.254;2023-06-22T03:57:06;101362.13;;;27.03;34.82
56630;BME280;42502;40.732;-74.254;2023-06-22T03:59:07;101372.66;;;27.03;35.40
56630;BME280;42502;40.732;-74.254;2023-06-22T04:01:07;101360.81;;;26.97;34.98
56630;BME280;42502;40.732;-74.254;2023-06-22T04:03:12;101367.75;;;27.00;35.32
56630;BME280;42502;40.732;-74.254;2023-06-22T04:05:15;101364.06;;;26.99;35.17
56630;BME280;42502;40.732;-74.254;2023-06-22T04:07:32;101360.44;;;26.99;34.89
56630;BME280;42502;40.732;-74.254;2023-06-22T04:09:33;101366.50;;;26.97;35.13
56630;BME280;42502;40.732;-74.254;2023-06-22T04:11:34;101360.31;;;26.91;34.97
56630;BME280;42502;40.732;-74.254;2023-06-22T04:13:35;101359.16;;;26.96;34.97
56630;BME280;42502;40.732;-74.254;2023-06-22T04:15:39;101354.25;;;26.93;35.26
56630;BME280;42502;40.732;-74.254;2023-06-22T04:17:39;101345.38;;;26.94;35.09
56630;BME280;42502;40.732;-74.254;2023-06-22T04:19:40;101348.59;;;26.93;34.97
56630;BME280;42502;40.732;-74.254;2023-06-22T04:21:41;101329.91;;;26.88;34.94
56630;BME280;42502;40.732;-74.254;2023-06-22T04:23:42;101335.59;;;26.92;35.02
56630;BME280;42502;40.732;-74.254;2023-06-22T04:25:46;101325.03;;;26.89;35.17
56630;BME280;42502;40.732;-74.254;2023-06-22T04:27:47;101333.16;;;26.90;34.80
56630;BME280;42502;40.732;-74.254;2023-06-22T04:29:49;101339.66;;;26.91;34.72
56630;BME280;42502;40.732;-74.254;2023-06-22T04:31:52;101338.03;;;26.90;35.18
56630;BME280;42502;40.732;-74.254;2023-06-22T04:33:53;101334.38;;;26.89;35.04
56630;BME280;42502;40.732;-74.254;2023-06-22T04:35:57;101336.38;;;26.89;34.98
56630;BME280;42502;40.732;-74.254;2023-06-22T04:38:01;101330.72;;;26.89;34.77
56630;BME280;42502;40.732;-74.254;2023-06-22T04:40:04;101331.09;;;26.87;34.79
56630;BME280;42502;40.732;-74.254;2023-06-22T04:42:05;101331.94;;;26.88;34.74
56630;BME280;42502;40.732;-74.254;2023-06-22T04:44:06;101331.09;;;26.87;35.05
56630;BME280;42502;40.732;-74.254;2023-06-22T04:46:07;101319.28;;;26.82;34.64
56630;BME280;42502;40.732;-74.254;2023-06-22T04:48:08;101320.13;;;26.86;34.66
56630;BME280;42502;40.732;-74.254;2023-06-22T04:50:10;101317.69;;;26.84;34.76
56630;BME280;42502;40.732;-74.254;2023-06-22T04:52:12;101323.34;;;26.84;34.81
56630;BME280;42502;40.732;-74.254;2023-06-22T04:54:13;101306.31;;;26.81;34.63
56630;BME280;42502;40.732;-74.254;2023-06-22T04:56:14;101311.22;;;26.84;35.06
56630;BME280;42502;40.732;-74.254;2023-06-22T04:58:18;101304.72;;;26.83;34.80
56630;BME280;42502;40.732;-74.254;2023-06-22T05:00:20;101307.50;;;26.80;34.77
56630;BME280;42502;40.732;-74.254;2023-06-22T05:02:23;101316.44;;;26.82;34.56
56630;BME280;42502;40.732;-74.254;2023-06-22T05:04:29;101311.16;;;26.80;34.69
56630;BME280;42502;40.732;-74.254;2023-06-22T05:06:32;101302.16;;;26.74;34.83
56630;BME280;42502;40.732;-74.254;2023-06-22T05:08:33;101300.22;;;26.79;35.12
56630;BME280;42502;40.732;-74.254;2023-06-22T05:10:35;101298.56;;;26.77;34.89
56630;BME280;42502;40.732;-74.254;2023-06-22T05:12:36;101301.41;;;26.77;34.62
56630;BME280;42502;40.732;-74.254;2023-06-22T05:14:36;101290.84;;;26.74;34.87
56630;BME280;42502;40.732;-74.254;2023-06-22T05:16:38;101288.41;;;26.76;34.62
56630;BME280;42502;40.732;-74.254;2023-06-22T05:18:39;101282.75;;;26.76;34.71
56630;BME280;42502;40.732;-74.254;2023-06-22T05:20:43;101281.94;;;26.76;34.84
56630;BME280;42502;40.732;-74.254;2023-06-22T05:22:44;101279.09;;;26.76;34.47
56630;BME280;42502;40.732;-74.254;2023-06-22T05:24:46;101280.31;;;26.75;34.70
56630;BME280;42502;40.732;-74.254;2023-06-22T05:26:46;101275.00;;;26.73;34.68
56630;BME280;42502;40.732;-74.254;2023-06-22T05:28:53;101275.41;;;26.72;34.79
56630;BME280;42502;40.732;-74.254;2023-06-22T05:30:54;101281.91;;;26.72;34.45
56630;BME280;42502;40.732;-74.254;2023-06-22T05:32:55;101279.44;;;26.71;34.80
56630;BME280;42502;40.732;-74.254;2023-06-22T05:34:55;101280.25;;;26.71;34.55
56630;BME280;42502;40.732;-74.254;2023-06-22T05:36:56;101264.31;;;26.63;34.85
56630;BME280;42502;40.732;-74.254;2023-06-22T05:38:59;101277.81;;;26.70;34.80
56630;BME280;42502;40.732;-74.254;2023-06-22T05:41:00;101268.50;;;26.69;34.96
56630;BME280;42502;40.732;-74.254;2023-06-22T05:43:03;101265.94;;;26.64;34.84
56630;BME280;42502;40.732;-74.254;2023-06-22T05:45:04;101258.75;;;26.67;34.46
56630;BME280;42502;40.732;-74.254;2023-06-22T05:47:08;101262.38;;;26.67;34.94
56630;BME280;42502;40.732;-74.254;2023-06-22T05:49:09;101252.25;;;26.66;34.82
56630;BME280;42502;40.732;-74.254;2023-06-22T05:51:10;101257.94;;;26.66;34.35
56630;BME280;42502;40.732;-74.254;2023-06-22T05:53:11;101232.28;;;26.59;34.59
56630;BME280;42502;40.732;-74.254;2023-06-22T05:55:14;101250.13;;;26.63;34.45
56630;BME280;42502;40.732;-74.254;2023-06-22T05:57:15;101250.97;;;26.64;34.35
56630;BME280;42502;40.732;-74.254;2023-06-22T05:59:19;101229.31;;;26.48;34.50
56630;BME280;42502;40.732;-74.254;2023-06-22T06:01:20;101250.13;;;26.63;34.45
56630;BME280;42502;40.732;-74.254;2023-06-22T06:03:21;101242.84;;;26.62;34.43
56630;BME280;42502;40.732;-74.254;2023-06-22T06:05:22;101248.53;;;26.62;34.71
56630;BME280;42502;40.732;-74.254;2023-06-22T06:07:24;101244.84;;;26.62;34.79
56630;BME280;42502;40.732;-74.254;2023-06-22T06:09:26;101242.41;;;26.60;34.60
56630;BME280;42502;40.732;-74.254;2023-06-22T06:11:26;101247.25;;;26.59;34.84
56630;BME280;42502;40.732;-74.254;2023-06-22T06:13:27;101241.97;;;26.58;34.48
56630;BME280;42502;40.732;-74.254;2023-06-22T06:15:32;101241.94;;;26.54;34.47
56630;BME280;42502;40.732;-74.254;2023-06-22T06:17:33;101248.84;;;26.57;34.76
56630;BME280;42502;40.732;-74.254;2023-06-22T06:19:34;101253.31;;;26.58;34.28
56630;BME280;42502;40.732;-74.254;2023-06-22T06:21:37;101248.84;;;26.57;34.79
56630;BME280;42502;40.732;-74.254;2023-06-22T06:23:41;101257.34;;;26.57;34.35
56630;BME280;42502;40.732;-74.254;2023-06-22T06:25:42;101238.22;;;26.50;34.31
56630;BME280;42502;40.732;-74.254;2023-06-22T06:27:43;101245.16;;;26.53;34.26
56630;BME280;42502;40.732;-74.254;2023-06-22T06:29:44;101241.09;;;26.54;34.41
56630;BME280;42502;40.732;-74.254;2023-06-22T06:31:51;101247.16;;;26.52;34.61
56630;BME280;42502;40.732;-74.254;2023-06-22T06:33:52;101241.09;;;26.54;34.47
56630;BME280;42502;40.732;-74.254;2023-06-22T06:35:54;101243.50;;;26.52;34.54
56630;BME280;42502;40.732;-74.254;2023-06-22T06:37:56;101245.53;;;26.51;34.38
56630;BME280;42502;40.732;-74.254;2023-06-22T06:39:57;101224.88;;;26.51;34.60
56630;BME280;42502;40.732;-74.254;2023-06-22T06:42:00;101215.53;;;26.47;34.72
56630;BME280;42502;40.732;-74.254;2023-06-22T06:44:01;101223.25;;;26.50;34.84
56630;BME280;42502;40.732;-74.254;2023-06-22T06:46:04;101220.81;;;26.48;34.54
56630;BME280;42502;40.732;-74.254;2023-06-22T06:48:05;101225.25;;;26.49;34.67
56630;BME280;42502;40.732;-74.254;2023-06-22T06:50:07;101227.28;;;26.49;34.63
56630;BME280;42502;40.732;-74.254;2023-06-22T06:52:08;101230.91;;;26.49;34.63
56630;BME280;42502;40.732;-74.254;2023-06-22T06:54:11;101219.16;;;26.47;34.38
56630;BME280;42502;40.732;-74.254;2023-06-22T06:56:13;101219.16;;;26.47;34.56
56630;BME280;42502;40.732;-74.254;2023-06-22T06:58:14;101219.53;;;26.46;34.80
56630;BME280;42502;40.732;-74.254;2023-06-22T07:00:15;101222.38;;;26.46;34.56
56630;BME280;42502;40.732;-74.254;2023-06-22T07:02:16;101223.56;;;26.45;34.27
56630;BME280;42502;40.732;-74.254;2023-06-22T07:04:18;101225.59;;;26.44;34.66
56630;BME280;42502;40.732;-74.254;2023-06-22T07:06:18;101223.56;;;26.45;34.44
56630;BME280;42502;40.732;-74.254;2023-06-22T07:08:19;101218.28;;;26.43;34.79
56630;BME280;42502;40.732;-74.254;2023-06-22T07:10:23;101217.06;;;26.40;34.31
56630;BME280;42502;40.732;-74.254;2023-06-22T07:12:24;101217.47;;;26.42;34.38
56630;BME280;42502;40.732;-74.254;2023-06-22T07:14:25;101217.47;;;26.42;34.84
56630;BME280;42502;40.732;-74.254;2023-06-22T07:16:25;101210.16;;;26.41;34.53
56630;BME280;42502;40.732;-74.254;2023-06-22T07:18:28;101212.19;;;26.41;34.67
56630;BME280;42502;40.732;-74.254;2023-06-22T07:20:29;101218.66;;;26.41;34.65
56630;BME280;42502;40.732;-74.254;2023-06-22T07:22:29;101212.56;;;26.39;34.56
56630;BME280;42502;40.732;-74.254;2023-06-22T07:24:30;101208.09;;;26.38;34.59
56630;BME280;42502;40.732;-74.254;2023-06-22T07:26:33;101204.47;;;26.38;34.61
56630;BME280;42502;40.732;-74.254;2023-06-22T07:28:34;101210.94;;;26.38;34.73
56630;BME280;42502;40.732;-74.254;2023-06-22T07:30:38;101198.75;;;26.34;34.35
56630;BME280;42502;40.732;-74.254;2023-06-22T07:32:39;101185.31;;;26.31;34.70
56630;BME280;42502;40.732;-74.254;2023-06-22T07:34:40;101193.50;;;26.36;34.57
56630;BME280;42502;40.732;-74.254;2023-06-22T07:36:41;101191.88;;;26.35;34.20
56630;BME280;42502;40.732;-74.254;2023-06-22T07:38:48;101188.22;;;26.35;34.65
56630;BME280;42502;40.732;-74.254;2023-06-22T07:40:49;101184.91;;;26.29;34.49
56630;BME280;42502;40.732;-74.254;2023-06-22T07:42:53;101194.69;;;26.35;34.72
56630;BME280;42502;40.732;-74.254;2023-06-22T07:44:57;101191.38;;;26.30;34.72
56630;BME280;42502;40.732;-74.254;2023-06-22T07:46:58;101195.47;;;26.32;34.41
56630;BME280;42502;40.732;-74.254;2023-06-22T07:49:02;101199.47;;;26.31;34.65
56630;BME280;42502;40.732;-74.254;2023-06-22T07:51:05;101202.69;;;26.30;34.40
56630;BME280;42502;40.732;-74.254;2023-06-22T07:53:06;101199.47;;;26.31;34.46
56630;BME280;42502;40.732;-74.254;2023-06-22T07:55:07;101198.69;;;26.31;34.37
56630;BME280;42502;40.732;-74.254;2023-06-22T07:57:10;101190.56;;;26.29;34.45
56630;BME280;42502;40.732;-74.254;2023-06-22T07:59:11;101190.56;;;26.29;34.43
56630;BME280;42502;40.732;-74.254;2023-06-22T08:01:15;101192.59;;;26.29;34.71
56630;BME280;42502;40.732;-74.254;2023-06-22T08:03:16;101191.75;;;26.28;34.44
56630;BME280;42502;40.732;-74.254;2023-06-22T08:05:20;101188.13;;;26.28;34.65
56630;BME280;42502;40.732;-74.254;2023-06-22T08:07:24;101175.88;;;26.20;34.44
56630;BME280;42502;40.732;-74.254;2023-06-22T08:09:28;101188.50;;;26.26;34.72
56630;BME280;42502;40.732;-74.254;2023-06-22T08:11:29;101197.00;;;26.26;34.58
56630;BME280;42502;40.732;-74.254;2023-06-22T08:13:30;101198.19;;;26.25;34.60
56630;BME280;42502;40.732;-74.254;2023-06-22T08:15:31;101193.75;;;26.24;34.38
56630;BME280;42502;40.732;-74.254;2023-06-22T08:17:32;101196.56;;;26.24;34.60
56630;BME280;42502;40.732;-74.254;2023-06-22T08:19:32;101201.41;;;26.23;34.46
56630;BME280;42502;40.732;-74.254;2023-06-22T08:21:33;101190.44;;;26.22;34.75
56630;BME280;42502;40.732;-74.254;2023-06-22T08:23:37;101197.34;;;26.21;34.75
56630;BME280;42502;40.732;-74.254;2023-06-22T08:25:40;101202.16;;;26.20;34.63
56630;BME280;42502;40.732;-74.254;2023-06-22T08:27:45;101207.81;;;26.20;34.62
56630;BME280;42502;40.732;-74.254;2023-06-22T08:29:52;101212.69;;;26.20;34.87
56630;BME280;42502;40.732;-74.254;2023-06-22T08:31:58;101213.50;;;26.20;34.46
56630;BME280;42502;40.732;-74.254;2023-06-22T08:33:59;101211.03;;;26.19;34.45
56630;BME280;42502;40.732;-74.254;2023-06-22T08:36:00;101209.41;;;26.18;34.78
56630;BME280;42502;40.732;-74.254;2023-06-22T08:38:01;101216.28;;;26.17;34.61
56630;BME280;42502;40.732;-74.254;2023-06-22T08:40:05;101221.94;;;26.17;34.70
56630;BME280;42502;40.732;-74.254;2023-06-22T08:42:08;101211.78;;;26.16;34.83
56630;BME280;42502;40.732;-74.254;2023-06-22T08:44:12;101213.88;;;26.19;34.74
56630;BME280;42502;40.732;-74.254;2023-06-22T08:46:13;101206.59;;;26.18;34.44
56630;BME280;42502;40.732;-74.254;2023-06-22T08:48:14;101212.50;;;26.09;34.68
56630;BME280;42502;40.732;-74.254;2023-06-22T08:50:17;101218.69;;;26.15;34.63
56630;BME280;42502;40.732;-74.254;2023-06-22T08:52:18;101223.50;;;26.14;34.70
56630;BME280;42502;40.732;-74.254;2023-06-22T08:54:23;101221.06;;;26.13;34.78
56630;BME280;42502;40.732;-74.254;2023-06-22T08:56:24;101210.94;;;26.12;34.51
56630;BME280;42502;40.732;-74.254;2023-06-22T08:58:25;101223.47;;;26.11;34.66
56630;BME280;42502;40.732;-74.254;2023-06-22T09:00:29;101189.13;;;25.89;34.99
56630;BME280;42502;40.732;-74.254;2023-06-22T09:02:33;101226.66;;;26.09;34.68
56630;BME280;42502;40.732;-74.254;2023-06-22T09:04:33;101225.88;;;26.09;34.83
56630;BME280;42502;40.732;-74.254;2023-06-22T09:06:40;101231.91;;;26.07;34.77
56630;BME280;42502;40.732;-74.254;2023-06-22T09:08:45;101228.25;;;26.06;34.82
56630;BME280;42502;40.732;-74.254;2023-06-22T09:10:49;101228.25;;;26.06;34.69
56630;BME280;42502;40.732;-74.254;2023-06-22T09:12:50;101235.13;;;26.05;35.00
56630;BME280;42502;40.732;-74.254;2023-06-22T09:14:51;101233.09;;;26.06;34.92
56630;BME280;42502;40.732;-74.254;2023-06-22T09:16:55;101241.97;;;26.04;34.47
56630;BME280;42502;40.732;-74.254;2023-06-22T09:18:55;101245.97;;;26.03;34.81
56630;BME280;42502;40.732;-74.254;2023-06-22T09:20:59;101246.81;;;26.04;34.65
56630;BME280;42502;40.732;-74.254;2023-06-22T09:23:00;101248.81;;;26.03;34.64
56630;BME280;42502;40.732;-74.254;2023-06-22T09:25:01;101253.66;;;26.03;34.62
56630;BME280;42502;40.732;-74.254;2023-06-22T09:27:03;101247.16;;;26.02;34.76
56630;BME280;42502;40.732;-74.254;2023-06-22T09:29:07;101251.09;;;25.98;34.65
56630;BME280;42502;40.732;-74.254;2023-06-22T09:31:08;101248.38;;;26.01;34.95
56630;BME280;42502;40.732;-74.254;2023-06-22T09:33:12;101251.59;;;26.00;34.86
56630;BME280;42502;40.732;-74.254;2023-06-22T09:35:15;101247.56;;;26.01;34.80
56630;BME280;42502;40.732;-74.254;2023-06-22T09:37:22;101239.44;;;25.99;34.87
56630;BME280;42502;40.732;-74.254;2023-06-22T09:39:22;101224.47;;;25.99;34.76
56630;BME280;42502;40.732;-74.254;2023-06-22T09:41:23;101233.78;;;25.99;34.76
56630;BME280;42502;40.732;-74.254;2023-06-22T09:43:28;101227.31;;;25.99;34.87
56630;BME280;42502;40.732;-74.254;2023-06-22T09:45:38;101221.56;;;25.95;34.99
56630;BME280;42502;40.732;-74.254;2023-06-22T09:47:39;101216.66;;;25.92;34.83
56630;BME280;42502;40.732;-74.254;2023-06-22T09:49:40;101220.34;;;25.96;34.75
56630;BME280;42502;40.732;-74.254;2023-06-22T09:51:40;101217.47;;;25.93;34.75
56630;BME280;42502;40.732;-74.254;2023-06-22T09:53:41;101224.41;;;25.95;34.71
56630;BME280;42502;40.732;-74.254;2023-06-22T09:55:42;101230.06;;;25.95;34.72
56630;BME280;42502;40.732;-74.254;2023-06-22T09:57:46;101229.22;;;25.95;34.68
56630;BME280;42502;40.732;-74.254;2023-06-22T09:59:47;101236.91;;;25.94;35.13
56630;BME280;42502;40.732;-74.254;2023-06-22T10:01:50;101232.03;;;25.95;34.76
56630;BME280;42502;40.732;-74.254;2023-06-22T10:03:52;101230.44;;;25.94;34.87
56630;BME280;42502;40.732;-74.254;2023-06-22T10:05:56;101228.75;;;25.89;34.68
56630;BME280;42502;40.732;-74.254;2023-06-22T10:07:57;101235.25;;;25.93;35.09
56630;BME280;42502;40.732;-74.254;2023-06-22T10:10:00;101232.00;;;25.91;35.08
56630;BME280;42502;40.732;-74.254;2023-06-22T10:12:01;101227.97;;;25.92;35.01
56630;BME280;42502;40.732;-74.254;2023-06-22T10:14:05;101237.66;;;25.91;35.01
56630;BME280;42502;40.732;-74.254;2023-06-22T10:16:05;101238.84;;;25.90;34.87
56630;BME280;42502;40.732;-74.254;2023-06-22T10:18:10;101231.19;;;25.91;35.08
56630;BME280;42502;40.732;-74.254;2023-06-22T10:20:11;101241.69;;;25.90;35.11
56630;BME280;42502;40.732;-74.254;2023-06-22T10:22:12;101233.56;;;25.88;35.05
56630;BME280;42502;40.732;-74.254;2023-06-22T10:24:16;101233.88;;;25.83;34.98
56630;BME280;42502;40.732;-74.254;2023-06-22T10:26:19;101248.09;;;25.87;35.22
56630;BME280;42502;40.732;-74.254;2023-06-22T10:28:20;101247.28;;;25.86;35.02
56630;BME280;42502;40.732;-74.254;2023-06-22T10:30:21;101261.44;;;25.86;34.75